createdAt,value
2019-02-05T00:01:07.198Z,55.45
2019-02-05T00:02:14.305Z,56.03
2019-02-05T00:03:23.646Z,56.90
2019-02-05T00:04:30.794Z,60.85
2019-02-05T00:05:38.011Z,62.20
2019-02-05T00:06:45.958Z,61.60
2019-02-05T00:07:53.689Z,59.95
2019-02-05T00:09:00.828Z,58.51
2019-02-05T00:10:10.955Z,56.57
2019-02-05T00:11:18.409Z,55.05
2019-02-05T00:12:25.447Z,52.39
2019-02-05T00:13:32.606Z,50.52
2019-02-05T00:14:41.388Z,49.67
2019-02-05T00:15:48.361Z,49.82
2019-02-05T00:16:55.519Z,50.28
2019-02-05T00:18:03.179Z,50.91
2019-02-05T00:19:10.101Z,51.51
2019-02-05T00:20:17.608Z,52.23
2019-02-05T00:21:24.799Z,52.90
2019-02-05T00:22:31.882Z,53.64
2019-02-05T00:23:39.778Z,54.62
2019-02-05T00:24:46.696Z,55.37
2019-02-05T00:25:53.701Z,56.50
2019-02-05T00:27:01.219Z,60.94
2019-02-05T00:28:08.135Z,61.90
2019-02-05T00:29:15.812Z,60.34
2019-02-05T00:30:23.864Z,59.37
2019-02-05T00:31:30.806Z,57.64
2019-02-05T00:32:37.977Z,56.33
2019-02-05T00:33:45.974Z,54.92
2019-02-05T00:34:53.094Z,52.61
2019-02-05T00:36:01.402Z,50.36
2019-02-05T00:37:09.508Z,50.01
2019-02-05T00:38:17.178Z,50.22
2019-02-05T00:39:24.814Z,50.69
2019-02-05T00:40:34.470Z,51.28
2019-02-05T00:41:41.595Z,52.04
2019-02-05T00:42:49.429Z,52.92
2019-02-05T00:43:57.006Z,53.72
2019-02-05T00:45:04.649Z,54.80
2019-02-05T00:46:12.270Z,59.33
2019-02-05T00:47:19.999Z,61.40
2019-02-05T00:48:26.813Z,60.56
2019-02-05T00:49:34.232Z,58.72
2019-02-05T00:50:41.605Z,57.20
2019-02-05T00:51:48.759Z,55.41
2019-02-05T00:52:55.812Z,53.15
2019-02-05T00:54:03.569Z,50.36
2019-02-05T00:55:16.463Z,49.53
2019-02-05T00:56:23.401Z,49.57
2019-02-05T00:57:30.666Z,50.21
2019-02-05T00:58:37.504Z,50.83
2019-02-05T00:59:44.472Z,51.63
2019-02-05T01:00:52.248Z,52.45
2019-02-05T01:01:59.392Z,53.11
2019-02-05T01:03:07.499Z,54.68
2019-02-05T01:04:14.974Z,59.30
2019-02-05T01:05:21.713Z,60.28
2019-02-05T01:06:29.653Z,59.44
2019-02-05T01:07:37.472Z,58.21
2019-02-05T01:08:45.205Z,56.22
2019-02-05T01:09:53.244Z,54.96
2019-02-05T01:11:00.516Z,52.30
2019-02-05T01:12:07.495Z,49.97
2019-02-05T01:13:15.756Z,49.33
2019-02-05T01:14:23.972Z,49.50
2019-02-05T01:15:31.444Z,50.04
2019-02-05T01:16:39.015Z,50.92
2019-02-05T01:17:46.864Z,51.69
2019-02-05T01:18:53.976Z,52.40
2019-02-05T01:20:00.956Z,53.71
2019-02-05T01:21:07.962Z,58.28
2019-02-05T01:22:14.586Z,59.38
2019-02-05T01:23:21.878Z,58.50
2019-02-05T01:24:29.767Z,56.99
2019-02-05T01:25:36.883Z,55.61
2019-02-05T01:26:44.647Z,52.97
2019-02-05T01:27:52.568Z,50.39
2019-02-05T01:28:59.599Z,49.60
2019-02-05T01:30:16.406Z,49.64
2019-02-05T01:31:24.198Z,50.09
2019-02-05T01:32:31.155Z,50.89
2019-02-05T01:33:38.546Z,51.71
2019-02-05T01:34:46.549Z,52.75
2019-02-05T01:35:53.555Z,56.57
2019-02-05T01:37:00.504Z,58.77
2019-02-05T01:38:07.699Z,58.69
2019-02-05T01:39:15.041Z,57.53
2019-02-05T01:40:27.420Z,56.03
2019-02-05T01:41:35.812Z,55.09
2019-02-05T01:42:42.517Z,52.06
2019-02-05T01:43:49.922Z,49.58
2019-02-05T01:44:57.080Z,49.02
2019-02-05T01:46:05.782Z,49.29
2019-02-05T01:47:13.859Z,49.91
2019-02-05T01:48:22.111Z,50.76
2019-02-05T01:49:29.101Z,51.63
2019-02-05T01:50:36.704Z,52.23
2019-02-05T01:51:43.503Z,56.23
2019-02-05T01:52:51.329Z,57.80
2019-02-05T01:53:59.649Z,58.12
2019-02-05T01:55:09.757Z,57.04
2019-02-05T01:56:17.868Z,55.92
2019-02-05T01:57:25.605Z,53.07
2019-02-05T01:58:33.605Z,50.40
2019-02-05T01:59:40.976Z,49.67
2019-02-05T02:00:48.160Z,49.75
2019-02-05T02:01:54.821Z,50.26
2019-02-05T02:03:02.690Z,50.91
2019-02-05T02:04:10.139Z,52.11
2019-02-05T02:05:17.050Z,53.42
2019-02-05T02:06:24.512Z,58.03
2019-02-05T02:07:31.982Z,58.55
2019-02-05T02:08:39.657Z,57.27
2019-02-05T02:09:47.303Z,55.57
2019-02-05T02:10:55.492Z,52.90
2019-02-05T02:12:03.826Z,50.50
2019-02-05T02:13:11.739Z,49.61
2019-02-05T02:14:19.441Z,49.92
2019-02-05T02:15:26.527Z,50.33
2019-02-05T02:16:34.253Z,51.02
2019-02-05T02:17:41.866Z,51.89
2019-02-05T02:18:48.854Z,55.93
2019-02-05T02:19:56.254Z,56.90
2019-02-05T02:21:04.235Z,56.86
2019-02-05T02:22:11.554Z,56.61
2019-02-05T02:23:18.438Z,55.44
2019-02-05T02:24:26.132Z,52.66
2019-02-05T02:25:34.632Z,49.88
2019-02-05T02:26:51.593Z,49.41
2019-02-05T02:27:51.434Z,49.52
2019-02-05T02:28:58.651Z,50.11
2019-02-05T02:30:08.308Z,50.76
2019-02-05T02:31:15.849Z,51.56
2019-02-05T02:32:22.524Z,55.46
2019-02-05T02:33:29.616Z,56.50
2019-02-05T02:34:36.936Z,53.28
2019-02-05T02:35:44.835Z,52.24
2019-02-05T02:36:52.004Z,52.40
2019-02-05T02:38:00.950Z,55.87
2019-02-05T02:39:08.650Z,56.35
2019-02-05T02:40:17.959Z,53.49
2019-02-05T02:41:25.827Z,52.64
2019-02-05T02:42:32.391Z,53.68
2019-02-05T02:43:39.158Z,57.13
2019-02-05T02:44:46.809Z,55.77
2019-02-05T02:45:53.834Z,53.18
2019-02-05T02:47:01.685Z,52.43
2019-02-05T02:48:09.421Z,53.43
2019-02-05T02:49:16.177Z,56.85
2019-02-05T02:50:23.940Z,55.29
2019-02-05T02:51:31.964Z,52.86
2019-02-05T02:52:39.027Z,52.33
2019-02-05T02:53:46.353Z,54.01
2019-02-05T02:54:54.335Z,57.22
2019-02-05T02:56:01.738Z,55.28
2019-02-05T02:57:11.313Z,52.99
2019-02-05T02:58:18.731Z,52.38
2019-02-05T02:59:25.540Z,54.29
2019-02-05T03:00:33.307Z,57.73
2019-02-05T03:01:41.070Z,57.96
2019-02-05T03:02:47.718Z,56.88
2019-02-05T03:03:55.208Z,55.35
2019-02-05T03:05:02.875Z,52.61
2019-02-05T03:06:09.656Z,49.79
2019-02-05T03:07:17.182Z,49.17
2019-02-05T03:08:24.645Z,49.14
2019-02-05T03:09:31.443Z,49.49
2019-02-05T03:10:38.404Z,50.25
2019-02-05T03:11:45.702Z,50.92
2019-02-05T03:12:52.414Z,54.51
2019-02-05T03:14:00.374Z,57.09
2019-02-05T03:15:11.194Z,56.69
2019-02-05T03:16:18.078Z,55.98
2019-02-05T03:17:25.662Z,54.92
2019-02-05T03:18:32.781Z,52.07
2019-02-05T03:19:39.633Z,49.09
2019-02-05T03:20:47.305Z,48.45
2019-02-05T03:21:55.624Z,48.59
2019-02-05T03:23:04.000Z,49.16
2019-02-05T03:24:12.138Z,49.96
2019-02-05T03:25:25.505Z,50.88
2019-02-05T03:26:31.917Z,55.63
2019-02-05T03:27:38.863Z,55.64
2019-02-05T03:28:46.308Z,52.59
2019-02-05T03:29:54.731Z,51.80
2019-02-05T03:31:01.722Z,51.99
2019-02-05T03:32:09.475Z,56.28
2019-02-05T03:33:17.097Z,55.84
2019-02-05T03:34:24.350Z,52.85
2019-02-05T03:35:31.415Z,51.97
2019-02-05T03:36:38.851Z,53.07
2019-02-05T03:37:45.400Z,56.69
2019-02-05T03:38:52.612Z,54.81
2019-02-05T03:39:59.800Z,52.69
2019-02-05T03:41:08.287Z,52.04
2019-02-05T03:42:14.493Z,54.95
2019-02-05T03:43:22.302Z,56.52
2019-02-05T03:44:29.272Z,53.45
2019-02-05T03:45:36.493Z,52.44
2019-02-05T03:46:43.653Z,53.37
2019-02-05T03:47:51.813Z,57.00
2019-02-05T03:48:59.068Z,54.93
2019-02-05T03:50:06.888Z,52.72
2019-02-05T03:51:34.311Z,52.14
2019-02-05T03:52:45.369Z,56.08
2019-02-05T03:54:18.474Z,56.15
2019-02-05T03:55:50.686Z,52.67
2019-02-05T03:57:30.720Z,53.06
2019-02-05T03:59:03.970Z,57.98
2019-02-05T04:00:32.305Z,58.55
2019-02-05T04:01:48.725Z,56.46
2019-02-05T04:03:20.782Z,54.12
2019-02-05T04:04:40.837Z,50.61
2019-02-05T04:06:07.492Z,49.07
2019-02-05T04:07:56.657Z,48.91
2019-02-05T04:09:16.792Z,49.26
2019-02-05T04:10:58.374Z,50.54
2019-02-05T04:12:25.433Z,56.64
2019-02-05T04:13:49.676Z,53.55
2019-02-05T04:15:32.736Z,51.70
2019-02-05T04:17:02.601Z,53.10
2019-02-05T04:18:26.697Z,57.66
2019-02-05T04:19:53.197Z,57.51
2019-02-05T04:21:29.077Z,56.44
2019-02-05T04:23:16.574Z,54.75
2019-02-05T04:24:59.293Z,50.33
2019-02-05T04:26:15.793Z,47.96
2019-02-05T04:27:43.703Z,48.19
2019-02-05T04:29:13.679Z,48.89
2019-02-05T04:30:42.607Z,49.45
2019-02-05T04:32:25.892Z,53.10
2019-02-05T04:33:56.457Z,56.56
2019-02-05T04:35:48.073Z,56.82
2019-02-05T04:37:14.445Z,56.11
2019-02-05T04:38:43.350Z,51.74
2019-02-05T04:40:23.409Z,49.04
2019-02-05T04:41:49.770Z,48.57
2019-02-05T04:43:40.250Z,49.20
2019-02-05T04:45:02.626Z,50.70
2019-02-05T04:46:42.726Z,55.99
2019-02-05T04:48:08.539Z,52.43
2019-02-05T04:49:34.460Z,51.14
2019-02-05T04:50:52.402Z,53.26
2019-02-05T04:52:21.202Z,56.82
2019-02-05T04:53:49.771Z,52.71
2019-02-05T04:55:12.705Z,51.28
2019-02-05T04:56:49.663Z,54.87
2019-02-05T04:58:35.531Z,57.17
2019-02-05T05:00:05.116Z,57.44
2019-02-05T05:01:28.535Z,56.26
2019-02-05T05:03:10.277Z,54.33
2019-02-05T05:04:27.203Z,50.52
2019-02-05T05:05:50.116Z,48.50
2019-02-05T05:07:09.399Z,48.23
2019-02-05T05:08:39.327Z,48.63
2019-02-05T05:09:52.628Z,49.19
2019-02-05T05:10:59.486Z,50.72
2019-02-05T05:12:05.797Z,54.49
2019-02-05T05:13:12.965Z,55.45
2019-02-05T05:14:18.998Z,52.57
2019-02-05T05:15:28.470Z,51.84
2019-02-05T05:16:36.478Z,52.07
2019-02-05T05:17:43.120Z,56.17
2019-02-05T05:18:49.136Z,54.80
2019-02-05T05:19:55.820Z,52.40
2019-02-05T05:21:02.546Z,51.75
2019-02-05T05:22:09.967Z,52.33
2019-02-05T05:23:16.548Z,56.13
2019-02-05T05:24:22.838Z,56.43
2019-02-05T05:25:29.800Z,55.96
2019-02-05T05:26:36.732Z,56.12
2019-02-05T05:27:42.820Z,55.20
2019-02-05T05:28:49.457Z,52.62
2019-02-05T05:29:56.360Z,49.89
2019-02-05T05:31:02.891Z,49.03
2019-02-05T05:32:10.470Z,49.23
2019-02-05T05:33:17.618Z,49.58
2019-02-05T05:34:23.636Z,50.24
2019-02-05T05:35:41.674Z,51.38
2019-02-05T05:36:38.058Z,55.81
2019-02-05T05:37:44.021Z,55.71
2019-02-05T05:38:50.747Z,52.63
2019-02-05T05:39:57.910Z,51.78
2019-02-05T05:41:04.199Z,51.83
2019-02-05T05:42:11.490Z,54.76
2019-02-05T05:43:18.317Z,56.89
2019-02-05T05:44:24.504Z,56.78
2019-02-05T05:45:31.446Z,56.44
2019-02-05T05:46:38.258Z,55.53
2019-02-05T05:47:44.428Z,52.42
2019-02-05T05:48:51.241Z,49.46
2019-02-05T05:49:58.999Z,48.39
2019-02-05T05:51:05.179Z,48.46
2019-02-05T05:52:11.707Z,48.94
2019-02-05T05:53:18.936Z,49.41
2019-02-05T05:54:24.666Z,50.15
2019-02-05T05:55:32.065Z,50.86
2019-02-05T05:56:39.042Z,55.17
2019-02-05T05:57:45.058Z,55.07
2019-02-05T05:58:51.511Z,52.33
2019-02-05T05:59:58.438Z,51.47
2019-02-05T06:01:04.617Z,51.52
2019-02-05T06:02:12.565Z,55.29
2019-02-05T06:03:18.565Z,55.35
2019-02-05T06:04:25.034Z,52.49
2019-02-05T06:05:31.815Z,51.59
2019-02-05T06:06:38.564Z,52.29
2019-02-05T06:07:44.835Z,56.12
2019-02-05T06:08:51.884Z,54.45
2019-02-05T06:09:58.733Z,52.26
2019-02-05T06:11:05.974Z,51.64
2019-02-05T06:12:12.684Z,52.29
2019-02-05T06:13:20.043Z,56.27
2019-02-05T06:14:26.537Z,54.08
2019-02-05T06:15:35.713Z,52.00
2019-02-05T06:16:41.029Z,51.27
2019-02-05T06:17:47.209Z,52.41
2019-02-05T06:18:54.927Z,56.30
2019-02-05T06:20:02.539Z,53.89
2019-02-05T06:21:08.367Z,51.92
2019-02-05T06:22:15.257Z,51.43
2019-02-05T06:23:22.188Z,52.33
2019-02-05T06:24:27.945Z,56.35
2019-02-05T06:25:34.685Z,54.76
2019-02-05T06:26:42.350Z,52.14
2019-02-05T06:27:48.637Z,51.40
2019-02-05T06:28:55.178Z,51.48
2019-02-05T06:30:01.757Z,54.47
2019-02-05T06:31:07.794Z,55.98
2019-02-05T06:32:14.146Z,53.02
2019-02-05T06:33:23.591Z,51.66
2019-02-05T06:34:29.543Z,51.69
2019-02-05T06:35:36.547Z,54.59
2019-02-05T06:36:44.204Z,55.61
2019-02-05T06:37:50.445Z,52.70
2019-02-05T06:38:58.205Z,51.75
2019-02-05T06:40:07.207Z,52.11
2019-02-05T06:41:13.640Z,55.99
2019-02-05T06:42:20.234Z,55.06
2019-02-05T06:43:27.408Z,52.38
2019-02-05T06:44:34.612Z,51.53
2019-02-05T06:45:42.336Z,51.69
2019-02-05T06:46:50.457Z,55.26
2019-02-05T06:47:56.536Z,55.65
2019-02-05T06:49:04.374Z,52.93
2019-02-05T06:50:13.782Z,51.73
2019-02-05T06:51:19.792Z,51.78
2019-02-05T06:52:28.194Z,55.86
2019-02-05T06:53:35.407Z,54.96
2019-02-05T06:54:41.145Z,52.22
2019-02-05T06:55:48.125Z,51.44
2019-02-05T06:56:54.749Z,52.07
2019-02-05T06:58:01.316Z,56.05
2019-02-05T06:59:08.452Z,54.94
2019-02-05T07:00:22.844Z,52.05
2019-02-05T07:01:29.627Z,51.29
2019-02-05T07:02:36.004Z,51.67
2019-02-05T07:03:44.957Z,55.44
2019-02-05T07:04:52.053Z,54.58
2019-02-05T07:05:58.444Z,51.99
2019-02-05T07:07:05.688Z,51.29
2019-02-05T07:08:11.755Z,51.89
2019-02-05T07:09:18.334Z,55.89
2019-02-05T07:10:28.695Z,54.53
2019-02-05T07:11:34.740Z,51.63
2019-02-05T07:12:41.345Z,51.08
2019-02-05T07:13:47.608Z,51.76
2019-02-05T07:14:54.515Z,55.68
2019-02-05T07:16:00.425Z,54.10
2019-02-05T07:17:07.495Z,51.84
2019-02-05T07:18:13.527Z,51.18
2019-02-05T07:19:19.654Z,51.88
2019-02-05T07:20:27.545Z,55.77
2019-02-05T07:21:35.626Z,54.16
2019-02-05T07:22:41.847Z,51.88
2019-02-05T07:23:48.604Z,51.17
2019-02-05T07:24:55.052Z,51.41
2019-02-05T07:26:01.205Z,54.73
2019-02-05T07:27:08.097Z,54.93
2019-02-05T07:28:15.220Z,52.27
2019-02-05T07:29:21.486Z,51.51
2019-02-05T07:30:28.840Z,51.53
2019-02-05T07:31:35.767Z,53.10
2019-02-05T07:32:41.919Z,56.17
2019-02-05T07:33:49.009Z,53.48
2019-02-05T07:34:55.725Z,51.90
2019-02-05T07:36:01.755Z,51.43
2019-02-05T07:37:08.485Z,51.96
2019-02-05T07:38:15.594Z,55.77
2019-02-05T07:39:21.760Z,54.67
2019-02-05T07:40:27.798Z,52.62
2019-02-05T07:41:40.977Z,51.82
2019-02-05T07:42:46.657Z,51.45
2019-02-05T07:43:53.329Z,52.34
2019-02-05T07:45:00.318Z,56.05
2019-02-05T07:46:06.429Z,53.30
2019-02-05T07:47:13.030Z,52.19
2019-02-05T07:48:22.058Z,51.90
2019-02-05T07:49:29.322Z,52.19
2019-02-05T07:50:35.726Z,55.74
2019-02-05T07:51:43.661Z,54.69
2019-02-05T07:52:50.604Z,52.47
2019-02-05T07:53:58.597Z,51.88
2019-02-05T07:55:07.505Z,51.96
2019-02-05T07:56:13.385Z,52.36
2019-02-05T07:57:19.633Z,55.76
2019-02-05T07:58:26.418Z,54.75
2019-02-05T07:59:32.498Z,52.35
2019-02-05T08:00:39.394Z,51.69
2019-02-05T08:01:45.920Z,51.95
2019-02-05T08:02:52.893Z,52.42
2019-02-05T08:03:59.342Z,56.15
2019-02-05T08:05:13.709Z,54.10
2019-02-05T08:06:21.263Z,52.25
2019-02-05T08:07:30.114Z,51.95
2019-02-05T08:08:36.535Z,51.94
2019-02-05T08:09:44.320Z,52.39
2019-02-05T08:10:50.732Z,55.76
2019-02-05T08:11:59.193Z,53.80
2019-02-05T08:13:05.303Z,52.74
2019-02-05T08:14:12.780Z,52.50
2019-02-05T08:15:30.260Z,52.42
2019-02-05T08:16:36.321Z,52.29
2019-02-05T08:17:42.861Z,52.67
2019-02-05T08:18:49.322Z,54.22
2019-02-05T08:19:55.623Z,53.44
2019-02-05T08:21:03.012Z,53.57
2019-02-05T08:22:09.704Z,52.92
2019-02-05T08:23:17.356Z,55.54
2019-02-05T08:24:24.969Z,54.88
2019-02-05T08:25:33.112Z,53.06
2019-02-05T08:26:39.681Z,52.73
2019-02-05T08:27:47.240Z,52.92
2019-02-05T08:28:56.534Z,52.57
2019-02-05T08:30:03.166Z,52.81
2019-02-05T08:31:10.220Z,55.71
2019-02-05T08:32:18.393Z,53.98
2019-02-05T08:33:24.780Z,52.85
2019-02-05T08:34:31.068Z,52.44
2019-02-05T08:35:37.833Z,52.88
2019-02-05T08:36:43.859Z,53.03
2019-02-05T08:37:51.899Z,55.84
2019-02-05T08:38:59.760Z,54.62
2019-02-05T08:40:16.021Z,52.86
2019-02-05T08:41:23.373Z,52.35
2019-02-05T08:42:33.060Z,52.65
2019-02-05T08:43:38.881Z,54.36
2019-02-05T08:44:46.166Z,55.48
2019-02-05T08:45:56.678Z,53.40
2019-02-05T08:47:00.360Z,52.72
2019-02-05T08:48:12.436Z,52.51
2019-02-05T08:49:19.193Z,52.08
2019-02-05T08:50:28.080Z,52.63
2019-02-05T08:51:34.893Z,55.90
2019-02-05T08:52:42.780Z,54.97
2019-02-05T08:53:49.256Z,53.11
2019-02-05T08:54:56.093Z,52.58
2019-02-05T08:56:02.954Z,52.57
2019-02-05T08:57:09.499Z,52.43
2019-02-05T08:58:16.333Z,52.39
2019-02-05T08:59:22.900Z,55.21
2019-02-05T09:00:35.213Z,54.44
2019-02-05T09:01:41.893Z,52.88
2019-02-05T09:02:48.503Z,52.25
2019-02-05T09:03:54.760Z,52.12
2019-02-05T09:05:02.162Z,52.24
2019-02-05T09:06:09.241Z,52.53
2019-02-05T09:07:15.502Z,55.37
2019-02-05T09:08:22.073Z,53.82
2019-02-05T09:09:29.101Z,52.45
2019-02-05T09:10:38.443Z,52.46
2019-02-05T09:11:45.402Z,52.35
2019-02-05T09:12:53.102Z,52.60
2019-02-05T09:14:10.336Z,52.69
2019-02-05T09:15:11.734Z,55.30
2019-02-05T09:16:17.740Z,53.87
2019-02-05T09:17:24.351Z,53.10
2019-02-05T09:18:30.740Z,52.72
2019-02-05T09:19:36.953Z,52.85
2019-02-05T09:20:42.713Z,53.40
2019-02-05T09:21:48.887Z,56.44
2019-02-05T09:22:55.152Z,54.71
2019-02-05T09:24:01.861Z,53.34
2019-02-05T09:25:10.740Z,52.57
2019-02-05T09:26:16.576Z,52.33
2019-02-05T09:27:23.213Z,52.34
2019-02-05T09:28:29.271Z,53.25
2019-02-05T09:29:36.062Z,56.72
2019-02-05T09:30:42.602Z,54.86
2019-02-05T09:31:49.021Z,53.20
2019-02-05T09:32:58.515Z,52.49
2019-02-05T09:34:05.923Z,52.41
2019-02-05T09:35:11.980Z,52.86
2019-02-05T09:36:18.620Z,53.64
2019-02-05T09:37:25.201Z,55.73
2019-02-05T09:38:32.740Z,53.98
2019-02-05T09:39:39.292Z,53.09
2019-02-05T09:40:47.020Z,52.80
2019-02-05T09:41:53.468Z,52.86
2019-02-05T09:43:00.773Z,54.13
2019-02-05T09:44:07.448Z,55.79
2019-02-05T09:45:13.894Z,53.52
2019-02-05T09:46:21.037Z,52.88
2019-02-05T09:47:27.873Z,52.84
2019-02-05T09:48:37.159Z,52.64
2019-02-05T09:49:43.102Z,52.33
2019-02-05T09:50:51.142Z,53.90
2019-02-05T09:51:57.245Z,54.80
2019-02-05T09:53:06.539Z,53.37
2019-02-05T09:54:13.513Z,52.80
2019-02-05T09:55:21.451Z,52.96
2019-02-05T09:56:30.461Z,52.64
2019-02-05T09:57:38.080Z,53.05
2019-02-05T09:58:47.464Z,53.40
2019-02-05T09:59:54.053Z,56.12
2019-02-05T10:00:59.936Z,54.07
2019-02-05T10:02:07.814Z,53.22
2019-02-05T10:03:14.350Z,52.57
2019-02-05T10:04:20.773Z,52.50
2019-02-05T10:05:33.272Z,52.45
2019-02-05T10:06:39.559Z,53.28
2019-02-05T10:07:45.840Z,55.16
2019-02-05T10:08:54.100Z,53.51
2019-02-05T10:10:01.541Z,52.99
2019-02-05T10:11:07.793Z,53.05
2019-02-05T10:12:14.440Z,53.04
2019-02-05T10:13:21.019Z,53.37
2019-02-05T10:14:30.013Z,55.54
2019-02-05T10:15:44.113Z,54.47
2019-02-05T10:16:52.232Z,53.18
2019-02-05T10:17:58.673Z,53.04
2019-02-05T10:19:05.407Z,53.33
2019-02-05T10:20:14.681Z,55.59
2019-02-05T10:21:22.337Z,55.82
2019-02-05T10:22:29.007Z,53.83
2019-02-05T10:23:36.852Z,53.24
2019-02-05T10:24:43.093Z,53.03
2019-02-05T10:25:49.373Z,52.98
2019-02-05T10:26:56.141Z,53.05
2019-02-05T10:28:03.494Z,53.04
2019-02-05T10:29:11.136Z,55.33
2019-02-05T10:30:30.840Z,54.91
2019-02-05T10:31:39.972Z,53.98
2019-02-05T10:32:47.662Z,53.51
2019-02-05T10:33:55.493Z,53.37
2019-02-05T10:35:01.568Z,53.22
2019-02-05T10:36:09.455Z,53.39
2019-02-05T10:37:16.481Z,53.59
2019-02-05T10:38:22.430Z,54.57
2019-02-05T10:39:28.472Z,55.08
2019-02-05T10:40:34.681Z,55.13
2019-02-05T10:41:41.501Z,54.44
2019-02-05T10:42:47.434Z,54.11
2019-02-05T10:43:53.441Z,53.97
2019-02-05T10:44:59.770Z,54.02
2019-02-05T10:46:05.944Z,54.53
2019-02-05T10:47:11.920Z,55.84
2019-02-05T10:48:18.177Z,55.27
2019-02-05T10:49:24.801Z,54.70
2019-02-05T10:50:30.711Z,54.49
2019-02-05T10:51:37.176Z,54.48
2019-02-05T10:52:43.074Z,54.88
2019-02-05T10:53:48.936Z,54.74
2019-02-05T10:54:55.381Z,54.85
2019-02-05T10:56:02.461Z,55.10
2019-02-05T10:57:10.048Z,55.76
2019-02-05T10:58:16.801Z,55.48
2019-02-05T10:59:23.333Z,54.86
2019-02-05T11:00:33.701Z,55.04
2019-02-05T11:01:40.353Z,55.41
2019-02-05T11:02:46.894Z,56.75
2019-02-05T11:03:53.174Z,56.37
2019-02-05T11:04:59.253Z,55.53
2019-02-05T11:06:05.601Z,54.94
2019-02-05T11:07:14.980Z,55.04
2019-02-05T11:08:20.881Z,55.70
2019-02-05T11:09:26.640Z,56.35
2019-02-05T11:10:32.481Z,55.64
2019-02-05T11:11:39.780Z,55.56
2019-02-05T11:12:48.721Z,54.82
2019-02-05T11:13:56.233Z,54.89
2019-02-05T11:15:01.980Z,55.36
2019-02-05T11:16:09.811Z,56.61
2019-02-05T11:17:16.839Z,56.08
2019-02-05T11:18:24.580Z,55.46
2019-02-05T11:19:31.773Z,55.13
2019-02-05T11:20:37.641Z,55.47
2019-02-05T11:21:44.013Z,57.58
2019-02-05T11:22:49.882Z,57.04
2019-02-05T11:23:56.172Z,55.24
2019-02-05T11:25:04.381Z,55.06
2019-02-05T11:26:11.776Z,55.11
2019-02-05T11:27:19.205Z,54.57
2019-02-05T11:28:25.922Z,54.94
2019-02-05T11:29:33.421Z,55.28
2019-02-05T11:30:43.340Z,55.18
2019-02-05T11:31:49.582Z,56.05
2019-02-05T11:32:55.422Z,56.47
2019-02-05T11:34:01.382Z,55.30
2019-02-05T11:35:09.443Z,55.75
2019-02-05T11:36:15.293Z,55.32
2019-02-05T11:37:21.663Z,55.27
2019-02-05T11:38:27.973Z,55.22
2019-02-05T11:39:35.604Z,55.59
2019-02-05T11:40:43.600Z,55.58
2019-02-05T11:41:50.700Z,55.77
2019-02-05T11:42:56.713Z,56.38
2019-02-05T11:44:03.171Z,56.08
2019-02-05T11:45:17.476Z,56.39
2019-02-05T11:46:26.504Z,56.30
2019-02-05T11:47:33.053Z,56.63
2019-02-05T11:48:42.603Z,56.71
2019-02-05T11:49:50.188Z,56.19
2019-02-05T11:50:55.986Z,56.79
2019-02-05T11:52:04.605Z,56.53
2019-02-05T11:53:10.520Z,56.32
2019-02-05T11:54:20.195Z,56.62
2019-02-05T11:55:34.101Z,56.80
2019-02-05T11:56:40.221Z,56.93
2019-02-05T11:57:47.508Z,56.56
2019-02-05T11:58:55.041Z,56.86
2019-02-05T12:00:01.861Z,57.22
2019-02-05T12:01:10.901Z,56.78
2019-02-05T12:02:20.807Z,56.97
2019-02-05T12:03:26.842Z,56.82
2019-02-05T12:04:32.957Z,57.33
2019-02-05T12:05:38.936Z,57.63
2019-02-05T12:06:46.540Z,57.50
2019-02-05T12:07:52.600Z,57.54
2019-02-05T12:08:59.134Z,58.32
2019-02-05T12:10:14.709Z,59.80
2019-02-05T12:11:22.273Z,64.51
2019-02-05T12:12:29.668Z,63.93
2019-02-05T12:13:36.740Z,62.68
2019-02-05T12:14:43.120Z,60.19
2019-02-05T12:15:49.854Z,57.20
2019-02-05T12:16:56.042Z,54.62
2019-02-05T12:18:01.856Z,51.34
2019-02-05T12:19:08.120Z,48.65
2019-02-05T12:20:17.622Z,47.60
2019-02-05T12:21:24.516Z,47.90
2019-02-05T12:22:30.421Z,47.88
2019-02-05T12:23:36.911Z,48.12
2019-02-05T12:24:42.940Z,49.07
2019-02-05T12:25:48.924Z,48.89
2019-02-05T12:26:57.684Z,49.76
2019-02-05T12:28:03.893Z,49.95
2019-02-05T12:29:16.900Z,50.36
2019-02-05T12:30:44.936Z,51.17
2019-02-05T12:31:50.274Z,51.25
2019-02-05T12:32:56.023Z,52.00
2019-02-05T12:34:01.961Z,52.52
2019-02-05T12:35:08.352Z,53.34
2019-02-05T12:36:16.614Z,53.89
2019-02-05T12:37:22.513Z,54.44
2019-02-05T12:38:30.823Z,54.48
2019-02-05T12:39:37.020Z,55.03
2019-02-05T12:40:43.460Z,55.05
2019-02-05T12:41:50.876Z,55.46
2019-02-05T12:42:57.374Z,56.07
2019-02-05T12:44:03.263Z,56.65
2019-02-05T12:45:13.841Z,56.48
2019-02-05T12:46:24.562Z,56.54
2019-02-05T12:47:30.429Z,57.24
2019-02-05T12:48:36.709Z,57.85
2019-02-05T12:49:42.700Z,58.08
2019-02-05T12:50:48.806Z,58.02
2019-02-05T12:51:55.621Z,58.33
2019-02-05T12:53:01.640Z,58.59
2019-02-05T12:54:07.608Z,59.04
2019-02-05T12:55:16.088Z,60.74
2019-02-05T12:56:23.968Z,64.97
2019-02-05T12:57:30.179Z,64.23
2019-02-05T12:58:36.420Z,62.00
2019-02-05T12:59:42.644Z,59.40
2019-02-05T13:00:59.737Z,57.55
2019-02-05T13:01:59.555Z,55.50
2019-02-05T13:03:06.122Z,52.00
2019-02-05T13:04:13.753Z,49.08
2019-02-05T13:05:22.712Z,48.37
2019-02-05T13:06:32.484Z,48.14
2019-02-05T13:07:40.521Z,48.45
2019-02-05T13:08:46.541Z,48.98
2019-02-05T13:09:52.394Z,49.07
2019-02-05T13:10:58.336Z,49.26
2019-02-05T13:12:06.153Z,49.42
2019-02-05T13:13:12.416Z,49.79
2019-02-05T13:14:20.093Z,50.48
2019-02-05T13:15:29.640Z,50.98
2019-02-05T13:16:35.842Z,51.49
2019-02-05T13:17:42.560Z,51.96
2019-02-05T13:18:48.530Z,52.68
2019-02-05T13:19:55.346Z,53.15
2019-02-05T13:21:02.162Z,53.79
2019-02-05T13:22:09.480Z,54.23
2019-02-05T13:23:19.091Z,54.88
2019-02-05T13:24:28.500Z,55.46
2019-02-05T13:25:34.962Z,55.75
2019-02-05T13:26:41.181Z,56.36
2019-02-05T13:27:47.571Z,56.90
2019-02-05T13:28:55.693Z,57.58
2019-02-05T13:30:02.879Z,57.65
2019-02-05T13:31:10.281Z,58.11
2019-02-05T13:32:20.242Z,58.50
2019-02-05T13:33:27.560Z,59.00
2019-02-05T13:34:37.088Z,60.93
2019-02-05T13:35:44.085Z,65.25
2019-02-05T13:36:51.397Z,64.40
2019-02-05T13:37:57.798Z,62.70
2019-02-05T13:39:05.075Z,60.53
2019-02-05T13:40:18.815Z,58.59
2019-02-05T13:41:29.082Z,56.34
2019-02-05T13:42:35.160Z,54.27
2019-02-05T13:43:42.181Z,51.73
2019-02-05T13:44:50.701Z,49.29
2019-02-05T13:45:57.530Z,48.38
2019-02-05T13:47:05.480Z,48.63
2019-02-05T13:48:12.413Z,48.75
2019-02-05T13:49:21.749Z,49.29
2019-02-05T13:50:33.532Z,50.14
2019-02-05T13:51:40.413Z,51.13
2019-02-05T13:52:47.400Z,51.56
2019-02-05T13:53:54.380Z,52.24
2019-02-05T13:55:00.774Z,52.67
2019-02-05T13:56:07.477Z,53.37
2019-02-05T13:57:13.580Z,54.33
2019-02-05T13:58:20.720Z,54.80
2019-02-05T13:59:27.428Z,55.34
2019-02-05T14:00:49.540Z,55.90
2019-02-05T14:01:57.234Z,56.30
2019-02-05T14:03:04.663Z,57.01
2019-02-05T14:04:11.720Z,57.68
2019-02-05T14:05:18.209Z,58.30
2019-02-05T14:06:26.087Z,58.58
2019-02-05T14:07:32.883Z,60.09
2019-02-05T14:08:39.333Z,64.63
2019-02-05T14:09:46.350Z,65.18
2019-02-05T14:10:52.848Z,63.52
2019-02-05T14:11:59.300Z,61.14
2019-02-05T14:13:05.682Z,58.86
2019-02-05T14:14:12.648Z,56.31
2019-02-05T14:15:24.913Z,54.18
2019-02-05T14:16:31.241Z,52.03
2019-02-05T14:17:38.521Z,50.01
2019-02-05T14:18:54.679Z,49.27
2019-02-05T14:19:52.575Z,49.74
2019-02-05T14:20:59.561Z,50.38
2019-02-05T14:22:06.560Z,50.73
2019-02-05T14:23:13.225Z,51.26
2019-02-05T14:24:19.490Z,51.80
2019-02-05T14:25:25.599Z,52.70
2019-02-05T14:26:31.578Z,53.44
2019-02-05T14:27:38.133Z,53.94
2019-02-05T14:28:45.322Z,54.47
2019-02-05T14:29:52.561Z,55.12
2019-02-05T14:31:01.082Z,55.80
2019-02-05T14:32:07.725Z,56.22
2019-02-05T14:33:14.419Z,57.09
2019-02-05T14:34:21.873Z,57.42
2019-02-05T14:35:28.180Z,58.01
2019-02-05T14:36:34.685Z,58.61
2019-02-05T14:37:52.280Z,60.72
2019-02-05T14:38:59.581Z,65.40
2019-02-05T14:40:19.680Z,65.06
2019-02-05T14:41:27.055Z,63.85
2019-02-05T14:42:33.258Z,60.61
2019-02-05T14:43:40.353Z,58.36
2019-02-05T14:44:47.955Z,56.33
2019-02-05T14:45:54.385Z,55.08
2019-02-05T14:47:01.100Z,52.50
2019-02-05T14:48:08.854Z,50.05
2019-02-05T14:49:14.921Z,49.28